Atlantic Beach, New York
Current Conditions -  °F | °C
As of 12:51 AM on Friday 31 Oct 2014 (Local Time) from KJFK Reporting Station
Few Clouds Few Clouds  
Wind Chill:   Ceiling: Unl
Heat Index:   Visibility: 10mi
Dew Point:   Wind: 8mph
Humidity: 63%   Direction: 350°N
Pressure: 30.02"   Gusts: NA
Location:  40.59°N, 73.73°W
Report Text: KJFK 310451Z 35007KT 10SM FEW040 08/02 A3002 RMK AO2 SLP166 T00830017 401610078
Loading
Personal Weather Stations






























Interactive Weather Map New forecast layout! Learn more

10-Day Weather Forecast

Advertisements
Track Severe Weather on mobile